Flight Track Log - Related Links

Times and Time Zones

All times are in EDT time to prevent confusion due to time zone crossing. See the BOE5 flight status page for this flight to view local times or setup timezone preferences in your user account.

Time Position Orientation Groundspeed Altitude Reporting Facility
EDT Latitude Longitude Course Direction KTS MPH feet Rate Location/Type
Sat 16:30:02 19.0333 -156.2833 289° West 210 242 5,100  Level Honolulu Center
Sat 16:31:02 19.0500 -156.3333 289° West 220 253 5,100  Level Honolulu Center
Sat 16:32:02 19.1000 -156.3667 328° Northwest 220 253 5,100  Level Honolulu Center
Sat 16:33:02 19.1667 -156.3833 347° North 210 242 5,100  Level Honolulu Center
Sat 16:34:02 19.2167 -156.4167 328° Northwest 210 242 5,100  Level Honolulu Center
Sat 16:35:02 19.2667 -156.4167 360° North 210 242 5,100  Level Honolulu Center
Sat 16:36:02 19.3333 -156.4333 347° North 210 242 5,100  Level Honolulu Center
Sat 16:37:02 19.3833 -156.4500 343° North 200 230 5,100  Level Honolulu Center
Sat 16:38:03 19.4333 -156.4667 343° North 200 230 5,100  Level Honolulu Center
Sat 16:39:03 19.5000 -156.4833 347° North 200 230 5,100  Level Honolulu Center
Sat 16:40:02 19.5500 -156.4833 360° North 200 230 5,100  Level Honolulu Center
Sat 16:41:03 19.6000 -156.5000 343° North 200 230 5,100  Level Honolulu Center
Sat 16:42:03 19.6667 -156.5167 347° North 200 230 5,100  Level Honolulu Center
Sat 16:43:03 19.7167 -156.5333 343° North 200 230 5,100  Level Honolulu Center
Sat 16:44:03 19.7667 -156.5500 343° North 190 219 5,100  Level Honolulu Center
Sat 16:45:03 19.8167 -156.5500 360° North 200 230 5,100  Level Honolulu Center
Sat 16:46:03 19.8833 -156.5833 335° Northwest 200 230 5,100  Level Honolulu Center
Sat 16:47:03 19.9167 -156.6167 317° Northwest 190 219 5,100  Level Honolulu Center
Sat 16:48:03 19.9667 -156.6500 328° Northwest 200 230 5,100  Level Honolulu Center
Sat 16:49:03 20.0000 -156.6833 317° Northwest 200 230 5,100  Level Honolulu Center
Sat 16:50:04 20.0500 -156.7167 328° Northwest 200 230 5,100  Level Honolulu Center
Sat 16:51:04 20.1000 -156.7500 328° Northwest 200 230 5,100  Level Honolulu Center
Sat 16:52:04 20.1500 -156.7833 328° Northwest 200 230 5,100  Level Honolulu Center
Sat 16:53:04 20.1833 -156.8167 317° Northwest 200 230 5,100  Level Honolulu Center
Sat 16:54:04 20.2333 -156.8667 317° Northwest 200 230 5,100  Level Honolulu Center
Sat 16:55:04 20.2833 -156.8833 343° North 190 219 5,100  Level Honolulu Center
Sat 16:56:04 20.3167 -156.9333 305° West 200 230 5,100  Level Honolulu Center
Sat 16:57:04 20.3667 -156.9667 328° Northwest 200 230 5,100  Level Honolulu Center
Sat 16:58:04 20.4167 -157.0000 328° Northwest 200 230 5,100  Level Honolulu Center
Sat 16:59:05 20.4500 -157.0333 317° Northwest 190 219 5,100  Level Honolulu Center
Sat 17:00:05 20.5000 -157.0667 328° Northwest 190 219 5,100  Level Honolulu Center
Sat 17:01:05 20.5500 -157.1000 328° Northwest 200 230 5,100  Level Honolulu Center
Sat 17:02:05 20.5833 -157.1333 317° Northwest 190 219 5,100  Level Honolulu Center
Sat 17:03:05 20.6333 -157.1667 328° Northwest 190 219 5,100  Level Honolulu Center
Sat 17:04:05 20.6833 -157.2000 328° Northwest 190 219 5,100  Level Honolulu Center
Sat 17:05:05 20.7167 -157.2333 317° Northwest 190 219 5,100  Level Honolulu Center
Sat 17:06:05 20.7667 -157.2500 343° North 190 219 5,100  Level Honolulu Center
Sat 17:07:05 20.8000 -157.2167 43° Northeast 210 242 5,100  Level Honolulu Center
Sat 17:08:05 20.7667 -157.1667 125° Southeast 180 207 5,100  Level Honolulu Center
Sat 17:09:05 20.7000 -157.1500 167° South 200 230 5,100  Level Honolulu Center
Sat 17:10:05 20.6667 -157.1167 137° Southeast 200 230 5,100  Level Honolulu Center
Sat 17:11:06 20.6167 -157.0833 148° Southeast 210 242 5,100  Level Honolulu Center
Sat 17:12:06 20.5667 -157.0500 148° Southeast 200 230 5,100  Level Honolulu Center
Sat 17:13:06 20.5167 -157.0333 163° South 200 230 5,100  Level Honolulu Center
Sat 17:14:06 20.4667 -157.0000 148° Southeast 200 230 5,100  Level Honolulu Center
Sat 17:15:06 20.4167 -156.9667 148° Southeast 200 230 5,100  Level Honolulu Center
Sat 17:16:06 20.3667 -156.9333 148° Southeast 200 230 5,100  Level Honolulu Center
Sat 17:17:06 20.3333 -156.9000 137° Southeast 190 219 5,100  Level Honolulu Center
Sat 17:18:06 20.2833 -156.8667 148° Southeast 200 230 5,100  Level Honolulu Center
Sat 17:19:07 20.2333 -156.8500 163° South 200 230 5,100  Level Honolulu Center
Sat 17:20:07 20.1833 -156.8167 148° Southeast 200 230 5,100  Level Honolulu Center
Sat 17:21:07 20.1333 -156.7833 148° Southeast 200 230 5,100  Level Honolulu Center
Sat 17:22:07 20.1000 -156.7500 137° Southeast 190 219 5,100  Level Honolulu Center
Sat 17:23:07 20.0500 -156.7333 163° South 200 230 5,100  Level Honolulu Center
Sat 17:24:07 20.0000 -156.7000 148° Southeast 200 230 5,100  Level Honolulu Center
Sat 17:25:07 19.9500 -156.6667 148° Southeast 200 230 5,100  Level Honolulu Center
Sat 17:26:07 19.9000 -156.6333 148° Southeast 190 219 5,100  Level Honolulu Center
Sat 17:27:07 19.8500 -156.6167 163° South 200 230 5,100 -50 Level Honolulu Center
Sat 17:28:08 19.8000 -156.5833 148° Southeast 200 230 5,000  Descending Honolulu Center
Sat 17:29:08 19.7667 -156.5500 137° Southeast 190 219 5,100 50 Climbing Honolulu Center
Sat 17:30:07 19.7167 -156.5333 163° South 190 219 5,100  Level Honolulu Center
Sat 17:31:08 19.6667 -156.5000 148° Southeast 190 219 5,100  Level Honolulu Center
Sat 17:32:08 19.6167 -156.4667 148° Southeast 200 230 5,100  Level Honolulu Center
Sat 17:33:08 19.5667 -156.4333 148° Southeast 190 219 5,100  Level Honolulu Center
Sat 17:34:08 19.5333 -156.4167 155° Southeast 190 219 5,100  Level Honolulu Center
Sat 17:35:08 19.4833 -156.3833 148° Southeast 190 219 5,100  Level Honolulu Center
Sat 17:36:08 19.4333 -156.3500 148° Southeast 190 219 5,100  Level Honolulu Center
Sat 17:37:08 19.3833 -156.3167 148° Southeast 200 230 5,100  Level Honolulu Center
Sat 17:38:09 19.3333 -156.3000 163° South 200 230 5,100  Level Honolulu Center
Sat 17:39:09 19.3000 -156.2667 137° Southeast 190 219 5,100 -50 Level Honolulu Center
Sat 17:40:09 19.2500 -156.2333 148° Southeast 220 253 5,000  Descending Honolulu Center
Sat 17:41:09 19.2000 -156.2167 163° South 170 196 5,100 50 Climbing Honolulu Center
Sat 17:42:09 19.1500 -156.1833 148° Southeast 180 207 5,100  Level Honolulu Center
Sat 17:43:09 19.1167 -156.1667 155° Southeast 190 219 5,100  Level Honolulu Center
Sat 17:44:09 19.0667 -156.1333 148° Southeast 190 219 5,100  Level Honolulu Center
Sat 17:45:09 19.0167 -156.1167 163° South 180 207 5,100  Level Honolulu Center
Sat 17:46:09 18.9667 -156.1000 163° South 190 219 5,100  Level Honolulu Center
Sat 17:47:09 18.9167 -156.0667 148° Southeast 190 219 5,100  Level Honolulu Center
Sat 17:48:09 18.8833 -156.0500 155° Southeast 180 207 5,100  Level Honolulu Center
Sat 17:49:10 18.8333 -156.0167 148° Southeast 180 207 5,100 298 Level Honolulu Center
Sat 17:50:10 18.7833 -156.0000 162° South 200 230 5,700 1,843 Climbing Honolulu Center
Sat 17:51:30 18.6833 -155.9667 162° South 270 311 9,400 3,129 Climbing Honolulu Center
Sat 17:52:30 18.6167 -155.9333 155° Southeast 290 334 13,000 2,800 Climbing Honolulu Center
Sat 17:53:30 18.5333 -155.9000 159° South 290 334 15,000 1,000 Climbing Honolulu Center
Sat 17:54:30 18.4667 -155.8667 155° Southeast 300 345 15,000  Level Honolulu Center
Sat 17:55:31 18.3833 -155.8333 159° South 300 345 15,000  Level Honolulu Center
Sat 17:56:30 18.3167 -155.8000 155° Southeast 300 345 15,000 100 Level Honolulu Center
Sat 17:57:31 18.2333 -155.7667 159° South 310 357 15,200 650 Climbing Honolulu Center
Sat 17:58:30 18.1500 -155.7167 150° Southeast 280 322 16,300 1,250 Climbing Honolulu Center
Sat 17:59:31 18.1667 -155.6333 78° East 300 345 17,700 1,438 Climbing Honolulu Center
Sat 18:00:31 18.2167 -155.5833 44° Northeast 320 368 19,200 1,550 Climbing Honolulu Center
Sat 18:01:31 18.2833 -155.5167 44° Northeast 330 380 20,800 1,500 Climbing Honolulu Center
Sat 18:02:31 18.3500 -155.4500 44° Northeast 320 368 22,200 1,500 Climbing Honolulu Center
Sat 18:03:31 18.4167 -155.3833 43° Northeast 320 368 23,800 1,450 Climbing Honolulu Center
Sat 18:04:31 18.4833 -155.3167 43° Northeast 340 391 25,100 1,190 Climbing Honolulu Center
Sat 18:05:32 18.5667 -155.2500 37° Northeast 390 449 26,200 1,289 Climbing Honolulu Center
Sat 18:06:32 18.6500 -155.1667 43° Northeast 420 483 27,700 1,350 Climbing Honolulu Center
Sat 18:07:32 18.7333 -155.0667 49° Northeast 450 518 28,900 1,350 Climbing Honolulu Center
Sat 18:08:32 18.8333 -154.9667 43° Northeast 480 552 30,400 900 Climbing Honolulu Center
Sat 18:09:32 18.9333 -154.8667 43° Northeast 490 564 30,700 700 Climbing Honolulu Center
Sat 18:10:32 19.0333 -154.7667 43° Northeast 490 564 31,800 1,100 Climbing Honolulu Center
Sat 18:11:32 19.1500 -154.6500 43° Northeast 500 575 32,900 1,100 Climbing Honolulu Center
Sat 18:12:32 19.2500 -154.5500 43° Northeast 500 575 34,000 1,150 Climbing Honolulu Center
Sat 18:13:32 19.3667 -154.4500 39° Northeast 510 587 35,200 1,000 Climbing Honolulu Center
Sat 18:14:32 19.4667 -154.3500 43° Northeast 510 587 36,000 694 Climbing Honolulu Center
Sat 18:15:33 19.5667 -154.2500 43° Northeast 500 575 36,600 744 Climbing Honolulu Center
Sat 18:16:33 19.6667 -154.1500 43° Northeast 500 575 37,500 800 Climbing Honolulu Center
Sat 18:17:33 19.7667 -154.0500 43° Northeast 500 575 38,200 750 Climbing Honolulu Center
Sat 18:18:33 19.8667 -153.9500 43° Northeast 500 575 39,000 400 Climbing Honolulu Center
Sat 18:19:33 19.9667 -153.8500 43° Northeast 500 575 39,000  Level Honolulu Center
Sat 18:20:33 20.0667 -153.7333 48° Northeast 490 564 39,000  Level Honolulu Center
Sat 18:21:33 20.1667 -153.6333 43° Northeast 490 564 39,000  Level Honolulu Center
Sat 18:22:33 20.2667 -153.5333 43° Northeast 500 575 39,000  Level Honolulu Center
Sat 18:23:33 20.3667 -153.4333 43° Northeast 500 575 39,000  Level Honolulu Center
Sat 18:24:33 20.4667 -153.3333 43° Northeast 490 564 39,000  Level Honolulu Center
Sat 18:25:33 20.5667 -153.2333 43° Northeast 490 564 39,000  Level Honolulu Center
Sat 18:26:34 20.6667 -153.1167 47° Northeast 500 575 39,000  Level Honolulu Center
Sat 18:27:34 20.6333 -152.9833 105° East 510 587 39,000  Level Honolulu Center
Sat 18:28:34 20.5000 -152.9167 155° Southeast 530 610 39,000  Level Honolulu Center
Sat 18:29:34 20.3833 -153.0000 214° Southwest 480 552 39,000  Level Honolulu Center
Sat 18:30:34 20.3000 -153.1000 228° Southwest 460 529 39,000  Level Honolulu Center
Sat 18:31:34 20.2000 -153.2000 223° Southwest 470 541 39,000  Level Honolulu Center
Sat 18:32:35 20.1167 -153.2833 223° Southwest 470 541 39,000  Level Honolulu Center
Sat 18:33:34 20.0167 -153.3833 223° Southwest 460 529 39,000  Level Honolulu Center
Sat 18:34:35 19.9333 -153.4833 228° Southwest 460 529 39,000  Level Honolulu Center
Sat 18:35:35 19.8333 -153.5667 218° Southwest 460 529 39,000  Level Honolulu Center
Sat 18:36:35 19.7333 -153.6667 223° Southwest 460 529 39,000  Level Honolulu Center
Sat 18:37:35 19.6333 -153.7667 223° Southwest 460 529 39,000  Level Honolulu Center
Sat 18:38:35 19.5500 -153.8500 223° Southwest 460 529 39,000  Level Honolulu Center
Sat 18:39:35 19.4500 -153.9500 223° Southwest 470 541 39,000  Level Honolulu Center
Sat 18:40:35 19.3500 -154.0333 218° Southwest 470 541 39,000  Level Honolulu Center
Sat 18:41:36 19.2667 -154.1333 229° Southwest 460 529 39,000  Level Honolulu Center
Sat 18:42:35 19.1667 -154.2333 223° Southwest 460 529 39,000  Level Honolulu Center
Sat 18:43:36 19.0667 -154.3167 218° Southwest 460 529 39,000  Level Honolulu Center
Sat 18:44:36 18.9833 -154.4167 229° Southwest 460 529 39,000  Level Honolulu Center
Sat 18:45:36 18.8833 -154.5167 223° Southwest 460 529 39,000  Level Honolulu Center
Sat 18:46:36 18.7833 -154.6000 218° Southwest 470 541 39,000  Level Honolulu Center
Sat 18:47:36 18.7000 -154.7000 229° Southwest 460 529 39,000  Level Honolulu Center
Sat 18:48:36 18.6167 -154.7667 217° Southwest 470 541 39,000  Level Honolulu Center
Sat 18:49:36 18.5167 -154.8667 223° Southwest 460 529 39,000  Level Honolulu Center
Sat 18:50:36 18.4333 -154.9667 229° Southwest 460 529 39,000  Level Honolulu Center
Sat 18:51:37 18.3333 -155.0500 218° Southwest 460 529 39,000  Level Honolulu Center
Sat 18:52:37 18.2500 -155.1500 229° Southwest 460 529 39,000  Level Honolulu Center
Sat 18:53:37 18.1500 -155.2333 218° Southwest 450 518 39,000  Level Honolulu Center
Sat 18:54:37 18.0667 -155.3333 229° Southwest 450 518 39,000  Level Honolulu Center
Sat 18:55:37 18.0333 -155.4500 253° West 460 529 39,000  Level Honolulu Center
Sat 18:56:37 18.1333 -155.5333 322° Northwest 470 541 39,000  Level Honolulu Center
Sat 18:57:37 18.2500 -155.4833 22° Northeast 480 552 39,000  Level Honolulu Center
Sat 18:58:37 18.3667 -155.3833 39° Northeast 510 587 39,000  Level Honolulu Center
Sat 18:59:37 18.4667 -155.2833 43° Northeast 500 575 39,000  Level Honolulu Center
Sat 19:00:37 18.5667 -155.1833 43° Northeast 500 575 39,000  Level Honolulu Center
Sat 19:01:38 18.6667 -155.0833 43° Northeast 500 575 39,000  Level Honolulu Center
Sat 19:02:38 18.7667 -154.9833 43° Northeast 490 564 39,000  Level Honolulu Center
Sat 19:03:38 18.8833 -154.9000 34° Northeast 490 564 39,000  Level Honolulu Center
Sat 19:04:38 19.0000 -154.7833 43° Northeast 500 575 39,000  Level Honolulu Center
Sat 19:05:38 19.1000 -154.6833 43° Northeast 500 575 39,000  Level Honolulu Center
Sat 19:06:38 19.2000 -154.5833 43° Northeast 510 587 39,000  Level Honolulu Center
Sat 19:07:38 19.3000 -154.4833 43° Northeast 500 575 39,000  Level Honolulu Center
Sat 19:08:39 19.4167 -154.3833 39° Northeast 510 587 39,000  Level Honolulu Center
Sat 19:09:38 19.5167 -154.2833 43° Northeast 500 575 39,000  Level Honolulu Center
Sat 19:10:39 19.6167 -154.1833 43° Northeast 490 564 39,000  Level Honolulu Center
Sat 19:11:39 19.7167 -154.0833 43° Northeast 500 575 39,000  Level Honolulu Center
Sat 19:12:39 19.8167 -153.9833 43° Northeast 490 564 39,000  Level Honolulu Center
Sat 19:13:39 19.9167 -153.8833 43° Northeast 490 564 39,000  Level Honolulu Center
Sat 19:14:39 20.0167 -153.7833 43° Northeast 500 575 39,000  Level Honolulu Center
Sat 19:15:39 20.1167 -153.6833 43° Northeast 500 575 39,000  Level Honolulu Center
Sat 19:16:39 20.2167 -153.5833 43° Northeast 500 575 39,000  Level Honolulu Center
Sat 19:17:39 20.3167 -153.4833 43° Northeast 490 564 39,000  Level Honolulu Center
Sat 19:18:39 20.4333 -153.3833 39° Northeast 490 564 39,000  Level Honolulu Center
Sat 19:19:40 20.5167 -153.2833 48° Northeast 490 564 39,000  Level Honolulu Center
Sat 19:20:40 20.5000 -153.1333 97° East 500 575 39,000  Level Honolulu Center
Sat 19:21:40 20.3833 -153.0667 152° Southeast 530 610 39,000  Level Honolulu Center
Sat 19:22:40 20.2667 -153.1500 214° Southwest 470 541 39,000  Level Honolulu Center
Sat 19:23:40 20.1833 -153.2500 228° Southwest 460 529 39,000  Level Honolulu Center
Sat 19:24:40 20.1000 -153.3500 228° Southwest 470 541 39,000  Level Honolulu Center
Sat 19:25:40 20.0000 -153.4500 223° Southwest 470 541 39,000  Level Honolulu Center
Sat 19:26:40 19.9167 -153.5500 228° Southwest 460 529 39,000  Level Honolulu Center
Sat 19:27:41 19.8167 -153.6333 218° Southwest 470 541 39,000  Level Honolulu Center
Sat 19:28:40 19.7333 -153.7333 228° Southwest 460 529 39,000  Level Honolulu Center
Sat 19:29:41 19.6333 -153.8333 223° Southwest 470 541 39,000  Level Honolulu Center
Sat 19:30:41 19.5500 -153.9333 229° Southwest 460 529 39,000  Level Honolulu Center
Sat 19:31:41 19.4500 -154.0333 223° Southwest 470 541 39,000  Level Honolulu Center
Sat 19:32:41 19.3667 -154.1333 229° Southwest 460 529 39,000  Level Honolulu Center
Sat 19:33:41 19.2667 -154.2333 223° Southwest 460 529 39,000  Level Honolulu Center
Sat 19:34:41 19.1833 -154.3167 223° Southwest 460 529 39,000  Level Honolulu Center
Sat 19:35:41 19.1000 -154.4167 229° Southwest 460 529 39,000  Level Honolulu Center
Sat 19:36:42 19.0000 -154.5167 223° Southwest 460 529 39,000  Level Honolulu Center
Sat 19:37:41 18.9167 -154.6167 229° Southwest 460 529 39,000  Level Honolulu Center
Sat 19:38:41 18.8167 -154.7167 223° Southwest 460 529 39,000  Level Honolulu Center
Sat 19:39:42 18.7333 -154.8167 229° Southwest 460 529 39,000  Level Honolulu Center
Sat 19:40:42 18.6667 -154.9000 230° Southwest 460 529 39,000  Level Honolulu Center
Sat 19:41:42 18.5667 -154.9833 218° Southwest 460 529 39,000  Level Honolulu Center
Sat 19:42:42 18.4833 -155.0833 229° Southwest 450 518 39,000  Level Honolulu Center
Sat 19:43:42 18.4000 -155.1833 229° Southwest 460 529 39,000  Level Honolulu Center
Sat 19:44:42 18.3000 -155.2833 224° Southwest 460 529 39,000  Level Honolulu Center
Sat 19:45:42 18.2167 -155.3667 224° Southwest 460 529 39,000  Level Honolulu Center
Sat 19:46:43 18.1167 -155.4667 224° Southwest 460 529 39,000  Level Honolulu Center
Sat 19:47:43 18.0500 -155.5667 235° Southwest 470 541 39,000  Level Honolulu Center
Sat 19:48:43 18.1167 -155.6833 301° West 470 541 39,000  Level Honolulu Center
Sat 19:49:43 18.2500 -155.6333 20° North 470 541 39,000  Level Honolulu Center
Sat 19:50:43 18.3333 -155.5167 53° Northeast 500 575 39,000  Level Honolulu Center
Sat 19:51:43 18.4333 -155.4167 43° Northeast 500 575 39,000  Level Honolulu Center
Sat 19:52:43 18.5333 -155.3000 48° Northeast 500 575 39,000  Level Honolulu Center
Sat 19:53:43 18.6333 -155.2000 43° Northeast 500 575 39,000  Level Honolulu Center
Sat 19:54:43 18.7333 -155.1000 43° Northeast 500 575 39,000  Level Honolulu Center
Sat 19:55:43 18.8333 -155.0000 43° Northeast 510 587 39,000  Level Honolulu Center
Sat 19:56:43 18.9333 -154.9000 43° Northeast 500 575 39,000  Level Honolulu Center
Sat 19:57:44 19.0500 -154.7667 47° Northeast 500 575 39,000  Level Honolulu Center
Sat 19:58:44 19.1500 -154.6667 43° Northeast 500 575 39,000  Level Honolulu Center
Sat 19:59:44 19.2500 -154.5667 43° Northeast 510 587 39,000  Level Honolulu Center
Sat 20:00:44 19.3333 -154.4500 53° Northeast 510 587 39,000  Level Honolulu Center
Sat 20:01:44 19.4333 -154.3500 43° Northeast 500 575 39,000  Level Honolulu Center
Sat 20:02:44 19.5333 -154.2500 43° Northeast 500 575 39,000  Level Honolulu Center
Sat 20:03:44 19.6333 -154.1333 48° Northeast 500 575 39,000  Level Honolulu Center
Sat 20:04:45 19.7333 -154.0333 43° Northeast 500 575 39,000  Level Honolulu Center
Sat 20:05:44 19.8333 -153.9333 43° Northeast 500 575 39,000  Level Honolulu Center
Sat 20:06:45 19.9333 -153.8333 43° Northeast 500 575 39,000  Level Honolulu Center
Sat 20:07:45 20.0333 -153.7333 43° Northeast 490 564 39,000  Level Honolulu Center
Sat 20:08:45 20.1333 -153.6167 48° Northeast 500 575 39,000  Level Honolulu Center
Sat 20:09:45 20.2167 -153.5167 48° Northeast 500 575 39,000  Level Honolulu Center
Sat 20:10:45 20.3167 -153.4167 43° Northeast 490 564 39,000  Level Honolulu Center
Sat 20:11:45 20.4167 -153.3167 43° Northeast 490 564 39,000  Level Honolulu Center
Sat 20:12:45 20.5000 -153.2000 53° Northeast 460 529 39,000  Level Honolulu Center
Sat 20:13:46 20.3667 -153.1000 145° Southeast 520 598 39,000  Level Honolulu Center
Sat 20:14:45 20.2500 -153.1500 202° Southwest 480 552 39,000  Level Honolulu Center
Sat 20:15:46 20.1667 -153.2500 228° Southwest 460 529 39,000  Level Honolulu Center
Sat 20:16:46 20.0667 -153.3333 218° Southwest 470 541 39,000  Level Honolulu Center
Sat 20:17:46 19.9667 -153.4333 223° Southwest 470 541 39,000  Level Honolulu Center
Sat 20:18:46 19.8667 -153.5167 218° Southwest 460 529 39,000  Level Honolulu Center
Sat 20:19:46 19.7833 -153.6167 228° Southwest 470 541 39,000  Level Honolulu Center
Sat 20:20:46 19.6833 -153.7167 223° Southwest 470 541 39,000  Level Honolulu Center
Sat 20:21:46 19.5833 -153.8000 218° Southwest 470 541 39,000  Level Honolulu Center
Sat 20:22:47 19.4833 -153.9000 223° Southwest 460 529 39,000  Level Honolulu Center
Sat 20:23:46 19.3833 -153.9833 218° Southwest 460 529 39,000  Level Honolulu Center
Sat 20:24:47 19.2833 -154.0667 218° Southwest 460 529 39,000  Level Honolulu Center
Sat 20:25:47 19.2000 -154.1667 229° Southwest 470 541 39,000  Level Honolulu Center
Sat 20:26:47 19.1000 -154.2500 218° Southwest 460 529 39,000  Level Honolulu Center
Sat 20:27:47 19.0000 -154.3500 223° Southwest 460 529 39,000  Level Honolulu Center
Sat 20:28:47 18.9000 -154.4333 218° Southwest 460 529 39,000  Level Honolulu Center
Sat 20:29:47 18.8167 -154.5333 229° Southwest 460 529 39,000  Level Honolulu Center
Sat 20:30:47 18.7167 -154.6167 218° Southwest 460 529 39,000  Level Honolulu Center
Sat 20:31:47 18.6167 -154.7167 223° Southwest 460 529 39,000  Level Honolulu Center
Sat 20:32:48 18.5833 -154.8333 253° West 490 564 39,000  Level Honolulu Center
Sat 20:33:48 18.7000 -154.9000 332° Northwest 480 552 39,000  Level Honolulu Center
Sat 20:34:48 18.8333 -154.9000 360° North 490 564 39,000  Level Honolulu Center
Sat 20:35:48 18.9500 -154.9167 352° North 490 564 39,000 -450 Level Honolulu Center
Sat 20:36:48 19.1000 -154.9333 354° North 480 552 38,100 -2,950 Descending Honolulu Center
Sat 20:37:48 19.2167 -154.9500 352° North 470 541 33,100 -3,350 Descending Honolulu Center
Sat 20:38:48 19.3667 -154.9667 354° North 490 564 31,400 -1,550 Descending Honolulu Center
Sat 20:39:48 19.5000 -154.9833 353° North 470 541 30,000 -500 Descending Honolulu Center
Sat 20:41:48 19.7333 -155.0167 352° North 460 529 29,900 -700 Descending Honolulu Center
Sat 20:42:48 19.8167 -155.1167 312° West 400 460 27,900 -3,124 Descending Honolulu Center
Sat 20:43:49 19.8833 -155.2000 310° West 410 472 23,600 -3,650 Descending Honolulu Center
Sat 20:44:48 19.9667 -155.3000 312° West 410 472 20,600 -2,950 Descending Honolulu Center
Sat 20:45:49 20.0333 -155.3833 310° West 390 449 17,700 -2,727 Descending Honolulu Center
Sat 20:46:49 20.1000 -155.4667 310° West 380 437 15,100 -2,800 Descending Honolulu Center
Sat 20:47:49 20.1167 -155.5833 279° West 370 426 12,100 -2,000 Descending Honolulu Center
Sat 20:48:49 20.1167 -155.6833 270° West 330 380 11,100 -1,250 Descending Honolulu Center
Sat 20:49:49 20.1167 -155.7667 270° West 280 322 9,600 -1,050 Descending Honolulu Center
Sat 20:50:49 20.1167 -155.8500 270° West 250 288 9,000 -650 Descending Honolulu Center
Sat 20:51:49 20.1167 -155.9167 270° West 240 276 8,300 -1,050 Descending Honolulu Center
Sat 20:52:49 20.0833 -155.9667 235° Southwest 240 276 6,900 -1,289 Descending Honolulu Center
Sat 20:53:50 20.0167 -156.0000 205° Southwest 230 265 5,700 -1,190 Descending Honolulu Center
Sat 20:54:50 19.9667 -156.0167 197° South 230 265 4,500 -1,300 Descending Honolulu Center
Sat 20:55:50 19.9000 -156.0167 180° South 220 253 3,100 -1,250 Descending Honolulu Center
Sat 20:56:50 19.8500 -156.0333 197° South 170 196 2,000 -900 Descending Honolulu Center
Sat 20:57:50 19.8000 -156.0333 180° South 150 173 1,300 -750 Descending Honolulu Center
Sat 20:58:50 19.7667 -156.0333 180° South 140 161 500 -800 Descending Honolulu Center
Sat 21:00:00 19.7333 -156.0333 197° South  Level FlightAware Approximate
Sat 21:07:00 19.7388 -156.0456 197° South  Level Estimated
Sat 21:08:00 19.7388 -156.0456 197° South  Level Estimated
Sat 21:09:00 19.7388 -156.0456 197° South  Level Estimated
Sat 21:10:00 19.7388 -156.0456 197° South  Level Estimated
Sat 21:11:00 19.7388 -156.0456 197° South  Level Estimated
Sat 21:12:00 19.7388 -156.0456 197° South  Level Estimated
Sat 21:13:00 19.7388 -156.0456 197° South  Level Estimated
Sat 21:14:00 19.7388 -156.0456 197° South  Level Estimated
Sat 21:15:00 19.7388 -156.0456 197° South  Level Estimated

Login

Don't have an account? Register now (free) for customized features, flight alerts, and more!